Historique des mesures à Cassis (13260), France
Quotidien Résumé Juin 28, 2017 Unités:  US    Métrique   Métrique/US
« Précédent (Jour)
Suivant (Jour) »
Quotidien Hebdomadaire Mensuel Annuel Période au choix
  Maximum: Minimum: Moyenne:
Température: 32 °F 67.1 °F 72.1 °F
Point de rosée: 32 °F 53.4 °F 60.4 °F
Humidité: Humidity % 49 % 64 %
Vitesse du vent: WindSpeedKMH mph 0.0 mph 8.4 mph
Rafales: WindSpeedGustKMH mph - -
Vent:- - SW
Pression: 0 in 29.5 in -
Précipitations: 213.36 in    
Historical Graphs
 
 
Mesures pour : Juin 28, 2017
Heure Temperature Point de rosée Pression Vent Vitesse du vent Rafales Humidité Pluie (par heure) Conditions
32 °F 32 °F 0 in Calm     Humidity % 0 in SoftwareType W/m2
00:11 77.7 °F 68 °F 29.6 in Calm     72 % 0 in open2300-1.11 W/m2
01:11 77.5 °F 68.2 °F 29.6 in SSE 2.6 mph 2.6 mph 73 % 0 in open2300-1.11 W/m2
02:11 76.3 °F 66.2 °F 29.6 in SE 3.2 mph 5.8 mph 71 % 0 in open2300-1.11 W/m2
03:10 70 °F 63.1 °F 29.6 in Calm     79 % 213.36 in open2300-1.11 W/m2
04:10 69.1 °F 63.3 °F 29.6 in NNE 4.0 mph 5.0 mph 82 % 0 in open2300-1.11 W/m2
05:10 69.4 °F 63.3 °F 29.5 in NE 1.1 mph 5.8 mph 81 % 0 in open2300-1.11 W/m2
06:11 68.7 °F 63 °F 29.5 in NNW 1.4 mph 1.4 mph 82 % 0 in open2300-1.11 W/m2
07:10 69.6 °F 63.9 °F 29.5 in ENE 1.8 mph 4.7 mph 82 % 0 in open2300-1.11 W/m2
08:11 70.9 °F 63 °F 29.5 in WNW 19.1 mph 19.1 mph 76 % 0 in open2300-1.11 W/m2
09:10 71.8 °F 63.9 °F 29.5 in NE 1.4 mph 5.8 mph 76 % 0 in open2300-1.11 W/m2
10:11 76.3 °F 64.6 °F 29.5 in WNW 17.7 mph 17.7 mph 67 % 0 in open2300-1.11 W/m2
11:10 76.5 °F 61.2 °F 29.5 in Calm   10.1 mph 59 % 0 in open2300-1.11 W/m2
12:11 76.8 °F 61.3 °F 29.5 in NNW 7.6 mph 8.7 mph 59 % 0 in open2300-1.11 W/m2
13:10 81 °F 60.1 °F 29.5 in NW 16.9 mph 16.9 mph 49 % 0 in open2300-1.11 W/m2
14:11 80.4 °F 60.1 °F 29.5 in NW 25.3 mph 25.3 mph 50 % 0 in open2300-1.11 W/m2
15:10 77.5 °F 59.5 °F 29.5 in West 9.3 mph 32.0 mph 54 % 0 in open2300-1.11 W/m2
16:10 76.1 °F 61.2 °F 29.5 in NW 11.9 mph 20.1 mph 60 % 0 in open2300-1.11 W/m2
17:11 76.8 °F 58.5 °F 29.5 in WNW 10.5 mph 18.3 mph 53 % 0 in open2300-1.11 W/m2
18:10 74.8 °F 61 °F 29.5 in NW 16.6 mph 24.1 mph 62 % 0 in open2300-1.11 W/m2
19:11 74.8 °F 61.3 °F 29.5 in ESE 7.2 mph 7.2 mph 63 % 0 in open2300-1.11 W/m2
20:10 73.8 °F 62.1 °F 29.5 in West 6.4 mph 12.2 mph 67 % 0 in open2300-1.11 W/m2
21:11 70.5 °F 56.8 °F 29.5 in NW 29.4 mph 37.5 mph 62 % 0 in open2300-1.11 W/m2
22:11 67.1 °F 53.6 °F 29.5 in WNW 11.1 mph 18.3 mph 62 % 0 in open2300-1.11 W/m2
23:10 67.8 °F 53.4 °F 29.5 in NW 6.4 mph 19.5 mph 60 % 0 in open2300-1.11 W/m2
Observations météo à CASSIS
WU-History script by Weather Underground - 1 mb